createdAt,value
2019-02-09T00:02:24.978Z,10.80
2019-02-09T00:04:54.657Z,10.82
2019-02-09T00:07:25.318Z,10.66
2019-02-09T00:09:54.934Z,10.63
2019-02-09T00:12:26.252Z,10.69
2019-02-09T00:14:55.685Z,10.64
2019-02-09T00:17:26.110Z,10.69
2019-02-09T00:19:57.002Z,10.73
2019-02-09T00:22:26.513Z,10.68
2019-02-09T00:24:55.996Z,10.72
2019-02-09T00:27:25.564Z,10.72
2019-02-09T00:29:56.094Z,10.66
2019-02-09T00:32:25.522Z,10.53
2019-02-09T00:34:56.137Z,10.59
2019-02-09T00:37:25.584Z,10.61
2019-02-09T00:39:56.038Z,10.51
2019-02-09T00:42:25.916Z,10.45
2019-02-09T00:44:57.335Z,10.40
2019-02-09T00:47:26.887Z,10.36
2019-02-09T00:49:56.581Z,10.37
2019-02-09T00:52:27.212Z,10.32
2019-02-09T00:54:56.661Z,10.30
2019-02-09T00:57:26.420Z,10.32
2019-02-09T00:59:56.884Z,10.29
2019-02-09T01:02:26.540Z,10.11
2019-02-09T01:04:56.492Z,10.05
2019-02-09T01:07:25.928Z,10.03
2019-02-09T01:09:56.458Z,10.02
2019-02-09T01:12:26.007Z,9.97
2019-02-09T01:14:56.757Z,10.01
2019-02-09T01:17:28.012Z,10.13
2019-02-09T01:19:58.627Z,10.14
2019-02-09T01:22:28.154Z,9.90
2019-02-09T01:24:57.660Z,9.90
2019-02-09T01:27:28.314Z,9.93
2019-02-09T01:30:02.570Z,9.81
2019-02-09T01:32:29.940Z,9.88
2019-02-09T01:35:03.064Z,9.85
2019-02-09T01:37:33.551Z,9.99
2019-02-09T01:40:04.411Z,9.75
2019-02-09T01:42:35.500Z,9.65
2019-02-09T01:45:07.521Z,9.69
2019-02-09T01:47:38.658Z,9.72
2019-02-09T01:50:10.107Z,9.67
2019-02-09T01:52:41.669Z,9.56
2019-02-09T01:55:14.290Z,9.36
2019-02-09T01:57:44.747Z,9.52
2019-02-09T02:00:16.747Z,9.50
2019-02-09T02:02:46.248Z,9.61
2019-02-09T02:05:18.127Z,9.58
2019-02-09T02:07:49.351Z,9.50
2019-02-09T02:10:42.280Z,9.40
2019-02-09T02:13:13.027Z,9.24
2019-02-09T02:15:45.790Z,9.27
2019-02-09T02:18:15.312Z,9.29
2019-02-09T02:20:45.913Z,9.44
2019-02-09T02:23:16.763Z,9.47
2019-02-09T02:25:47.628Z,9.53
2019-02-09T02:28:18.563Z,9.44
2019-02-09T02:30:48.160Z,9.50
2019-02-09T02:33:17.651Z,9.50
2019-02-09T02:35:47.157Z,9.53
2019-02-09T02:38:18.046Z,9.47
2019-02-09T02:40:47.596Z,9.39
2019-02-09T02:43:17.225Z,9.32
2019-02-09T02:45:49.705Z,9.34
2019-02-09T02:48:19.213Z,9.35
2019-02-09T02:50:48.756Z,9.31
2019-02-09T02:53:18.162Z,9.34
2019-02-09T02:55:47.784Z,9.23
2019-02-09T02:58:18.295Z,9.31
2019-02-09T03:00:48.805Z,9.28
2019-02-09T03:03:18.507Z,9.28
2019-02-09T03:05:49.401Z,9.24
2019-02-09T03:08:22.142Z,9.29
2019-02-09T03:10:51.664Z,9.18
2019-02-09T03:13:21.093Z,9.13
2019-02-09T03:15:51.818Z,9.24
2019-02-09T03:18:21.604Z,9.26
2019-02-09T03:20:52.495Z,9.26
2019-02-09T03:23:21.919Z,9.42
2019-02-09T03:25:51.695Z,9.45
2019-02-09T03:28:21.273Z,9.47
2019-02-09T03:30:50.810Z,9.51
2019-02-09T03:33:20.522Z,9.43
2019-02-09T03:35:50.008Z,9.34
2019-02-09T03:38:20.924Z,9.38
2019-02-09T03:40:50.487Z,9.39
2019-02-09T03:43:19.963Z,9.47
2019-02-09T03:45:50.498Z,9.46
2019-02-09T03:48:20.204Z,9.50
2019-02-09T03:50:49.680Z,9.40
2019-02-09T03:53:20.411Z,9.25
2019-02-09T03:55:49.966Z,9.31
2019-02-09T03:58:19.374Z,9.26
2019-02-09T04:00:55.437Z,9.33
2019-02-09T04:03:21.702Z,9.37
2019-02-09T04:05:52.309Z,9.28
2019-02-09T04:08:24.661Z,9.16
2019-02-09T04:10:54.800Z,9.12
2019-02-09T04:13:27.009Z,9.20
2019-02-09T04:15:56.606Z,9.30
2019-02-09T04:18:27.592Z,9.24
2019-02-09T04:20:57.208Z,9.39
2019-02-09T04:23:26.608Z,9.37
2019-02-09T04:25:57.521Z,9.47
2019-02-09T04:28:26.977Z,9.59
2019-02-09T04:31:05.269Z,9.54
2019-02-09T04:33:27.730Z,9.54
2019-02-09T04:35:57.287Z,9.43
2019-02-09T04:38:26.739Z,9.54
2019-02-09T04:40:56.596Z,9.55
2019-02-09T04:43:27.227Z,9.48
2019-02-09T04:45:58.149Z,9.44
2019-02-09T04:48:29.721Z,9.49
2019-02-09T04:50:59.152Z,9.48
2019-02-09T04:53:28.563Z,9.46
2019-02-09T04:55:58.035Z,9.40
2019-02-09T04:58:27.478Z,9.55
2019-02-09T05:00:57.063Z,9.60
2019-02-09T05:03:27.682Z,9.53
2019-02-09T05:05:57.301Z,9.44
2019-02-09T05:08:26.792Z,9.50
2019-02-09T05:10:58.036Z,9.66
2019-02-09T05:13:28.991Z,9.68
2019-02-09T05:15:58.769Z,9.57
2019-02-09T05:18:28.412Z,9.59
2019-02-09T05:20:59.310Z,9.65
2019-02-09T05:23:28.798Z,9.42
2019-02-09T05:25:58.240Z,9.43
2019-02-09T05:28:27.760Z,9.26
2019-02-09T05:30:58.953Z,9.38
2019-02-09T05:33:28.736Z,9.40
2019-02-09T05:35:58.173Z,9.57
2019-02-09T05:38:27.571Z,9.63
2019-02-09T05:40:58.134Z,9.56
2019-02-09T05:43:28.588Z,9.64
2019-02-09T05:45:58.030Z,9.42
2019-02-09T05:48:27.506Z,9.42
2019-02-09T05:50:56.889Z,9.36
2019-02-09T05:53:26.271Z,9.37
2019-02-09T05:55:55.725Z,9.46
2019-02-09T05:58:25.160Z,9.38
2019-02-09T06:00:54.625Z,9.39
2019-02-09T06:03:25.416Z,9.32
2019-02-09T06:05:54.830Z,9.27
2019-02-09T06:08:25.324Z,9.26
2019-02-09T06:10:54.852Z,9.30
2019-02-09T06:13:24.396Z,9.32
2019-02-09T06:15:53.760Z,9.28
2019-02-09T06:18:23.391Z,9.38
2019-02-09T06:20:53.245Z,9.27
2019-02-09T06:23:24.201Z,9.16
2019-02-09T06:25:55.072Z,9.12
2019-02-09T06:28:25.818Z,9.21
2019-02-09T06:30:56.262Z,9.17
2019-02-09T06:33:27.685Z,9.14
2019-02-09T06:35:57.110Z,9.15
2019-02-09T06:38:27.881Z,9.09
2019-02-09T06:40:58.641Z,9.30
2019-02-09T06:43:28.141Z,9.26
2019-02-09T06:45:57.521Z,9.18
2019-02-09T06:48:29.060Z,9.21
2019-02-09T06:51:02.081Z,9.31
2019-02-09T06:53:31.795Z,9.23
2019-02-09T06:56:03.232Z,9.18
2019-02-09T06:58:33.652Z,9.13
2019-02-09T07:01:03.058Z,9.09
2019-02-09T07:03:32.767Z,9.03
2019-02-09T07:06:05.486Z,8.94
2019-02-09T07:08:34.889Z,8.78
2019-02-09T07:11:06.200Z,8.95
2019-02-09T07:13:35.700Z,9.00
2019-02-09T07:16:05.594Z,9.07
2019-02-09T07:18:35.342Z,9.06
2019-02-09T07:21:05.253Z,9.04
2019-02-09T07:23:34.946Z,9.04
2019-02-09T07:26:06.415Z,8.93
2019-02-09T07:28:38.731Z,9.01
2019-02-09T07:31:08.271Z,9.06
2019-02-09T07:33:39.651Z,8.86
2019-02-09T07:36:09.127Z,8.88
2019-02-09T07:38:41.153Z,9.00
2019-02-09T07:41:12.571Z,8.91
2019-02-09T07:43:42.145Z,8.97
2019-02-09T07:46:14.178Z,9.12
2019-02-09T07:48:44.654Z,9.05
2019-02-09T07:51:14.280Z,9.04
2019-02-09T07:53:44.466Z,9.04
2019-02-09T07:56:14.380Z,9.07
2019-02-09T07:58:45.811Z,9.15
2019-02-09T08:01:15.212Z,9.26
2019-02-09T08:03:45.823Z,9.24
2019-02-09T08:06:15.342Z,9.27
2019-02-09T08:08:44.729Z,9.36
2019-02-09T08:11:14.463Z,9.32
2019-02-09T08:13:44.433Z,9.39
2019-02-09T08:16:16.236Z,9.36
2019-02-09T08:18:47.401Z,9.50
2019-02-09T08:21:17.070Z,9.48
2019-02-09T08:23:48.954Z,9.23
2019-02-09T08:26:19.614Z,9.30
2019-02-09T08:28:49.471Z,9.38
2019-02-09T08:31:18.910Z,9.32
2019-02-09T08:33:48.482Z,9.13
2019-02-09T08:36:17.946Z,9.25
2019-02-09T08:38:47.389Z,9.32
2019-02-09T08:41:17.108Z,9.25
2019-02-09T08:43:46.798Z,9.21
2019-02-09T08:46:16.224Z,9.14
2019-02-09T08:48:45.707Z,9.14
2019-02-09T08:51:16.090Z,9.08
2019-02-09T08:53:47.083Z,9.24
2019-02-09T08:56:17.897Z,9.30
2019-02-09T08:58:49.050Z,9.25
2019-02-09T09:01:18.453Z,9.28
2019-02-09T09:03:47.902Z,9.35
2019-02-09T09:06:18.426Z,9.56
2019-02-09T09:08:50.860Z,9.78
2019-02-09T09:11:22.330Z,9.69
2019-02-09T09:13:51.854Z,9.60
2019-02-09T09:16:21.366Z,9.59
2019-02-09T09:18:51.018Z,9.53
2019-02-09T09:21:20.439Z,9.50
2019-02-09T09:23:51.714Z,9.40
2019-02-09T09:26:22.335Z,9.47
2019-02-09T09:28:51.907Z,9.41
2019-02-09T09:31:21.815Z,9.59
2019-02-09T09:33:51.610Z,9.81
2019-02-09T09:36:22.937Z,9.96
2019-02-09T09:38:52.395Z,9.97
2019-02-09T09:41:22.964Z,10.00
2019-02-09T09:43:52.403Z,10.18
2019-02-09T09:46:21.895Z,10.06
2019-02-09T09:48:53.450Z,9.97
2019-02-09T09:51:23.896Z,10.04
2019-02-09T09:53:53.383Z,10.09
2019-02-09T09:56:26.894Z,10.22
2019-02-09T09:58:56.465Z,10.35
2019-02-09T10:01:25.892Z,10.57
2019-02-09T10:03:55.503Z,10.55
2019-02-09T10:06:24.970Z,10.59
2019-02-09T10:08:57.333Z,10.62
2019-02-09T10:11:29.453Z,10.68
2019-02-09T10:13:58.959Z,10.60
2019-02-09T10:16:30.054Z,10.35
2019-02-09T10:18:59.740Z,10.32
2019-02-09T10:21:29.276Z,10.34
2019-02-09T10:23:58.813Z,10.28
2019-02-09T10:26:29.715Z,10.43
2019-02-09T10:29:01.823Z,10.37
2019-02-09T10:31:34.237Z,10.39
2019-02-09T10:34:04.094Z,10.52
2019-02-09T10:36:35.331Z,10.59
2019-02-09T10:39:08.399Z,10.57
2019-02-09T10:41:38.242Z,10.64
2019-02-09T10:44:09.377Z,10.78
2019-02-09T10:46:41.464Z,10.74
2019-02-09T10:49:12.052Z,10.94
2019-02-09T10:51:41.662Z,10.77
2019-02-09T10:54:11.132Z,10.69
2019-02-09T10:56:41.942Z,10.63
2019-02-09T10:59:12.634Z,10.90
2019-02-09T11:01:42.650Z,11.07
2019-02-09T11:04:12.390Z,10.95
2019-02-09T11:06:42.105Z,10.92
2019-02-09T11:09:20.767Z,10.96
2019-02-09T11:11:50.495Z,11.03
2019-02-09T11:14:20.241Z,10.84
2019-02-09T11:16:50.824Z,10.78
2019-02-09T11:19:20.495Z,11.02
2019-02-09T11:21:50.040Z,10.96
2019-02-09T11:24:21.033Z,10.95
2019-02-09T11:26:53.720Z,11.12
2019-02-09T11:29:23.257Z,11.04
2019-02-09T11:31:52.796Z,10.92
2019-02-09T11:34:22.465Z,10.76
2019-02-09T11:36:51.927Z,10.76
2019-02-09T11:39:21.739Z,10.76
2019-02-09T11:41:51.412Z,10.88
2019-02-09T11:44:20.948Z,10.96
2019-02-09T11:46:52.298Z,10.99
2019-02-09T11:49:21.981Z,10.99
2019-02-09T11:51:51.422Z,10.98
2019-02-09T11:54:24.119Z,10.93
2019-02-09T11:56:53.770Z,11.01
2019-02-09T11:59:27.307Z,11.03
2019-02-09T12:01:58.521Z,10.91
2019-02-09T12:04:28.229Z,10.91
2019-02-09T12:06:59.441Z,11.06
2019-02-09T12:09:35.107Z,11.25
2019-02-09T12:12:02.516Z,11.29
2019-02-09T12:14:33.103Z,11.31
2019-02-09T12:17:02.651Z,11.34
2019-02-09T12:19:35.082Z,11.10
2019-02-09T12:22:05.758Z,11.13
2019-02-09T12:24:36.271Z,11.24
2019-02-09T12:27:05.941Z,11.39
2019-02-09T12:29:35.456Z,11.25
2019-02-09T12:32:05.737Z,11.26
2019-02-09T12:34:35.385Z,11.35
2019-02-09T12:37:05.134Z,11.42
2019-02-09T12:39:35.757Z,11.49
2019-02-09T12:42:05.519Z,11.41
2019-02-09T12:44:35.286Z,11.29
2019-02-09T12:47:04.974Z,11.26
2019-02-09T12:49:35.488Z,11.27
2019-02-09T12:52:05.013Z,11.29
2019-02-09T12:54:34.447Z,11.43
2019-02-09T12:57:07.049Z,11.37
2019-02-09T12:59:38.223Z,11.29
2019-02-09T13:02:09.584Z,11.40
2019-02-09T13:04:38.999Z,11.40
2019-02-09T13:07:08.673Z,11.41
2019-02-09T13:09:39.981Z,11.48
2019-02-09T13:12:11.476Z,11.41
2019-02-09T13:14:40.892Z,11.42
2019-02-09T13:17:11.755Z,11.46
2019-02-09T13:19:42.300Z,11.66
2019-02-09T13:22:11.765Z,11.55
2019-02-09T13:24:42.386Z,11.56
2019-02-09T13:27:11.971Z,11.74
2019-02-09T13:29:41.439Z,11.65
2019-02-09T13:32:12.649Z,11.40
2019-02-09T13:34:44.000Z,11.27
2019-02-09T13:37:15.242Z,11.25
2019-02-09T13:39:44.694Z,11.29
2019-02-09T13:42:14.464Z,11.29
2019-02-09T13:44:44.953Z,11.31
2019-02-09T13:47:14.580Z,11.25
2019-02-09T13:49:45.498Z,11.19
2019-02-09T13:52:17.827Z,11.29
2019-02-09T13:54:47.228Z,11.46
2019-02-09T13:57:17.055Z,11.65
2019-02-09T13:59:47.463Z,11.89
2019-02-09T14:02:16.855Z,11.86
2019-02-09T14:04:46.348Z,11.88
2019-02-09T14:07:17.263Z,12.02
2019-02-09T14:09:46.743Z,12.09
2019-02-09T14:12:16.271Z,12.05
2019-02-09T14:14:45.657Z,12.09
2019-02-09T14:17:17.688Z,12.02
2019-02-09T14:19:48.794Z,12.02
2019-02-09T14:22:18.229Z,12.09
2019-02-09T14:24:48.046Z,11.83
2019-02-09T14:27:19.751Z,11.80
2019-02-09T14:29:52.448Z,11.72
2019-02-09T14:32:22.966Z,11.84
2019-02-09T14:34:53.899Z,11.57
2019-02-09T14:37:23.420Z,11.42
2019-02-09T14:39:53.881Z,11.35
2019-02-09T14:42:23.386Z,11.43
2019-02-09T14:44:52.772Z,11.39
2019-02-09T14:47:22.192Z,11.10
